In Rescue
 
Open Full Screen Window  High Contrast Mode
Wind Gusting 00 knots
08
March 01, 2024 3:32 PM EST
Weather Information
Wind Direction
  170 °
Wind Speed
  08 kt (9 mph)
Wind Gust
  00 kt (0 mph)
Altimeter
30.13 in
Visibility
10 SM
Temperature
09° C
48° F
Dewpoint
-07° C
19° F
Humidity
32%
Sky Condition
Clear
VFR

METAR KMOP 012032Z AUTO 17008KT 10SM CLR 09/M07 A3013 RMK AO2 T00851074

FAA Disclaimer: The data displayed is for advisory purposes only and is not to be used for flight planning or operations.